createdAt,value
2022-08-04T04:43:51.219Z,8.88
2022-08-04T04:53:33.656Z,7.57
2022-08-04T04:56:29.962Z,8.05
2022-08-04T04:58:58.169Z,7.25
2022-08-04T05:01:31.777Z,7.88
2022-08-04T05:04:33.232Z,8.40
2022-08-04T05:07:24.065Z,7.57
2022-08-04T05:10:17.953Z,7.45
2022-08-04T05:14:36.355Z,7.75
2022-08-04T05:16:07.517Z,7.10
2022-08-04T05:18:36.849Z,6.40
2022-08-04T05:21:18.321Z,7.03
2022-08-04T05:23:49.223Z,6.38
2022-08-04T05:26:18.988Z,6.72
2022-08-04T05:28:52.250Z,7.60
2022-08-04T05:31:29.506Z,7.28
2022-08-04T05:34:03.559Z,7.50
2022-08-04T05:36:41.224Z,7.68
2022-08-04T05:39:28.070Z,8.10
2022-08-04T05:42:04.502Z,7.22
2022-08-04T05:44:33.798Z,7.30
2022-08-04T05:47:03.007Z,7.40
2022-08-04T05:49:31.396Z,6.80
2022-08-04T05:52:01.058Z,7.50
2022-08-04T05:54:29.863Z,7.07
2022-08-04T05:56:57.562Z,8.35
2022-08-04T05:59:25.889Z,6.75
2022-08-04T06:01:57.277Z,6.88
2022-08-04T06:04:37.690Z,6.50
2022-08-04T06:07:05.905Z,6.30
2022-08-04T06:09:33.852Z,6.00
2022-08-04T06:12:04.927Z,6.10
2022-08-04T06:14:38.433Z,6.32
2022-08-04T06:18:33.713Z,5.65
2022-08-04T06:20:03.801Z,5.75
2022-08-04T06:22:44.703Z,5.55
2022-08-04T06:25:16.397Z,5.72
2022-08-04T06:27:44.405Z,4.13
2022-08-04T06:30:14.694Z,4.82
2022-08-04T06:32:50.059Z,3.63
2022-08-04T06:35:18.122Z,4.47
2022-08-04T06:37:46.707Z,4.00
2022-08-04T06:40:30.983Z,4.10
2022-08-04T06:43:04.627Z,3.65
2022-08-04T06:45:35.023Z,3.60
2022-08-04T06:48:05.179Z,3.53
2022-08-04T06:51:26.828Z,3.50
2022-08-04T06:53:22.930Z,3.00
2022-08-04T06:55:50.694Z,3.40
2022-08-04T06:58:19.564Z,3.30
2022-08-04T07:00:47.751Z,3.20
2022-08-04T07:03:17.150Z,3.70
2022-08-04T07:05:46.967Z,3.55
2022-08-04T07:08:14.896Z,3.22
2022-08-04T07:10:42.834Z,3.17
2022-08-04T07:13:10.585Z,3.80
2022-08-04T07:15:39.346Z,3.90
2022-08-04T07:18:07.124Z,2.80
2022-08-04T07:20:36.770Z,3.10
2022-08-04T07:23:04.991Z,2.80
2022-08-04T07:25:59.671Z,2.90
2022-08-04T07:28:30.189Z,3.10
2022-08-04T07:30:58.374Z,3.47
2022-08-04T07:33:26.258Z,3.47
2022-08-04T07:36:05.269Z,3.47
2022-08-04T07:38:48.425Z,4.10
2022-08-04T07:41:39.304Z,4.10
2022-08-04T07:44:08.250Z,3.90
2022-08-04T07:46:39.033Z,3.92
2022-08-04T07:49:07.076Z,4.28
2022-08-04T07:51:35.795Z,4.18
2022-08-04T07:54:05.289Z,4.22
2022-08-04T07:56:36.119Z,4.20
2022-08-04T07:59:04.851Z,4.00
2022-08-04T08:01:32.563Z,4.18
2022-08-04T08:04:00.689Z,4.72
2022-08-04T08:06:32.260Z,3.58
2022-08-04T08:09:12.620Z,3.88
2022-08-04T08:12:38.496Z,4.10
2022-08-04T08:14:37.966Z,3.90
2022-08-04T08:17:06.006Z,3.72
2022-08-04T08:19:34.797Z,3.97
2022-08-04T08:22:02.569Z,3.67
2022-08-04T08:24:31.298Z,3.53
2022-08-04T08:27:00.525Z,3.83
2022-08-04T08:29:29.659Z,3.53
2022-08-04T08:32:02.672Z,3.67
2022-08-04T08:34:35.064Z,3.97
2022-08-04T08:37:26.647Z,3.67
2022-08-04T08:39:59.965Z,3.90
2022-08-04T08:42:42.189Z,3.47
2022-08-04T08:45:40.049Z,4.07
2022-08-04T08:48:07.779Z,3.58
2022-08-04T08:51:28.693Z,3.67
2022-08-04T08:57:07.990Z,4.00
2022-08-04T09:00:10.449Z,3.72
2022-08-04T09:03:04.815Z,3.10
2022-08-04T09:05:58.590Z,3.03
2022-08-04T09:08:29.790Z,2.90
2022-08-04T09:11:03.939Z,2.60
2022-08-04T09:13:41.813Z,2.65
2022-08-04T09:16:22.835Z,2.80
2022-08-04T09:19:05.700Z,2.90
2022-08-04T09:21:40.197Z,2.38
2022-08-04T09:24:35.241Z,2.75
2022-08-04T09:27:16.225Z,2.78
2022-08-04T09:30:06.043Z,3.22
2022-08-04T09:32:39.511Z,3.10
2022-08-04T09:35:17.182Z,3.17
2022-08-04T09:37:48.876Z,3.60
2022-08-04T09:40:53.692Z,3.22
2022-08-04T09:43:57.215Z,2.75
2022-08-04T09:46:17.605Z,2.83
2022-08-04T09:48:59.278Z,2.90
2022-08-04T09:51:59.231Z,3.17
2022-08-04T09:54:42.469Z,3.10
2022-08-04T09:57:31.472Z,3.05
2022-08-04T10:00:06.125Z,3.10
2022-08-04T10:03:02.684Z,2.97
2022-08-04T10:06:05.866Z,3.05
2022-08-04T10:09:02.205Z,3.38
2022-08-04T10:11:54.509Z,3.13
2022-08-04T10:14:56.618Z,3.00
2022-08-04T10:20:45.641Z,3.15
2022-08-04T10:23:55.394Z,3.03
2022-08-04T10:26:45.520Z,3.20
2022-08-04T10:29:24.895Z,3.40
2022-08-04T10:32:21.709Z,3.10
2022-08-04T10:35:10.255Z,3.45
2022-08-04T10:38:00.364Z,3.50
2022-08-04T10:40:52.307Z,3.30
2022-08-04T10:46:10.370Z,3.65
2022-08-04T10:49:06.059Z,3.40
2022-08-04T10:51:58.197Z,3.25
2022-08-04T10:54:30.025Z,3.22
2022-08-04T10:57:10.993Z,3.47
2022-08-04T11:00:19.958Z,3.80
2022-08-04T11:03:10.905Z,3.75
2022-08-04T11:05:54.961Z,3.67
2022-08-04T11:08:24.063Z,3.50
2022-08-04T11:11:00.698Z,3.30
2022-08-04T11:13:43.858Z,3.60
2022-08-04T11:16:37.513Z,3.75
2022-08-04T11:19:20.151Z,3.72
2022-08-04T11:21:53.003Z,3.80
2022-08-04T11:24:26.379Z,3.50
2022-08-04T11:26:59.458Z,3.53
2022-08-04T11:29:29.584Z,3.75
2022-08-04T11:31:59.200Z,3.42
2022-08-04T11:34:27.471Z,3.60
2022-08-04T11:37:16.369Z,3.97
2022-08-04T11:39:53.626Z,3.45
2022-08-04T11:42:23.582Z,3.85
2022-08-04T11:45:13.705Z,3.70
2022-08-04T11:48:12.829Z,3.58
2022-08-04T11:50:45.353Z,3.75
2022-08-04T11:53:24.283Z,3.45
2022-08-04T11:56:07.155Z,3.47
2022-08-04T11:58:37.407Z,3.70
2022-08-04T12:01:35.486Z,3.53
2022-08-04T12:04:28.806Z,3.20
2022-08-04T12:07:30.465Z,3.30
2022-08-04T12:10:06.344Z,4.53
2022-08-04T12:12:54.562Z,3.60
2022-08-04T12:15:22.667Z,3.40
2022-08-04T12:18:24.686Z,3.70
2022-08-04T12:20:59.150Z,3.45
2022-08-04T12:23:31.397Z,3.30
2022-08-04T12:26:03.137Z,3.10
2022-08-04T12:29:06.777Z,3.53
2022-08-04T12:31:40.749Z,3.20
2022-08-04T12:34:09.834Z,3.40
2022-08-04T12:36:43.160Z,3.10
2022-08-04T12:39:21.105Z,3.03
2022-08-04T12:42:08.137Z,2.97
2022-08-04T12:44:39.024Z,3.17
2022-08-04T12:47:26.496Z,3.10
2022-08-04T12:50:00.941Z,3.08
2022-08-04T12:53:02.489Z,2.90
2022-08-04T12:55:33.545Z,2.92
2022-08-04T12:58:02.483Z,3.30
2022-08-04T13:00:40.802Z,2.80
2022-08-04T13:03:11.455Z,3.13
2022-08-04T13:05:41.047Z,3.38
2022-08-04T13:08:10.174Z,2.83
2022-08-04T13:10:42.520Z,3.30
2022-08-04T13:13:16.391Z,2.72
2022-08-04T13:18:35.613Z,3.20
2022-08-04T13:21:23.020Z,3.00
2022-08-04T13:24:21.973Z,2.97
2022-08-04T13:27:19.034Z,3.13
2022-08-04T13:29:59.269Z,3.42
2022-08-04T13:30:23.936Z,3.05
2022-08-04T13:32:31.495Z,3.22
2022-08-04T13:35:00.852Z,3.13
2022-08-04T13:37:36.210Z,3.15
2022-08-04T13:40:09.253Z,3.25
2022-08-04T13:42:37.283Z,2.67
2022-08-04T13:45:06.615Z,2.92
2022-08-04T13:47:35.711Z,3.17
2022-08-04T13:50:16.966Z,3.80
2022-08-04T13:52:45.204Z,3.13
2022-08-04T13:55:26.681Z,2.97
2022-08-04T13:58:13.051Z,3.20
2022-08-04T14:00:47.537Z,2.70
2022-08-04T14:03:24.083Z,3.00
2022-08-04T14:06:31.994Z,2.80
2022-08-04T14:09:02.069Z,2.28
2022-08-04T14:12:09.482Z,3.17
2022-08-04T14:14:29.919Z,2.92
2022-08-04T14:17:05.064Z,2.92
2022-08-04T14:19:55.309Z,2.95
2022-08-04T14:22:25.966Z,2.80
2022-08-04T14:25:07.432Z,2.53
2022-08-04T14:27:45.575Z,2.90
2022-08-04T14:30:33.182Z,2.97
2022-08-04T14:34:00.662Z,3.10
2022-08-04T14:35:59.608Z,2.78
2022-08-04T14:39:00.504Z,2.70
2022-08-04T14:41:31.677Z,3.00
2022-08-04T14:44:02.411Z,2.75
2022-08-04T14:46:36.637Z,4.10
2022-08-04T14:49:10.724Z,2.90
2022-08-04T14:51:43.238Z,2.58
2022-08-04T14:54:17.771Z,2.80
2022-08-04T14:56:54.559Z,2.90
2022-08-04T14:59:22.649Z,3.08
2022-08-04T15:02:00.003Z,3.15
2022-08-04T15:04:28.604Z,3.05
2022-08-04T15:06:56.203Z,3.20
2022-08-04T15:09:23.916Z,3.15
2022-08-04T15:11:51.715Z,3.03
2022-08-04T15:14:37.093Z,2.80
2022-08-04T15:17:12.343Z,2.90
2022-08-04T15:19:56.304Z,2.53
2022-08-04T15:22:24.206Z,2.80
2022-08-04T15:24:55.115Z,3.05
2022-08-04T15:27:27.643Z,3.00
2022-08-04T15:30:00.369Z,2.88
2022-08-04T15:32:30.860Z,2.63
2022-08-04T15:35:03.201Z,3.20
2022-08-04T15:37:37.654Z,3.15
2022-08-04T15:40:33.592Z,2.80
2022-08-04T15:43:08.660Z,2.55
2022-08-04T15:46:41.050Z,2.95
2022-08-04T15:48:41.314Z,3.25
2022-08-04T15:51:14.632Z,3.20
2022-08-04T15:54:03.534Z,3.30
2022-08-04T15:56:31.141Z,3.10
2022-08-04T15:58:58.750Z,3.05
2022-08-04T16:01:27.980Z,3.15
2022-08-04T16:04:00.020Z,2.97
2022-08-04T16:06:30.492Z,3.05
2022-08-04T16:09:02.211Z,3.10
2022-08-04T16:11:32.207Z,2.83
2022-08-04T16:14:00.321Z,2.97
2022-08-04T16:16:33.112Z,3.20
2022-08-04T16:19:04.824Z,3.65
2022-08-04T16:21:33.970Z,4.03
2022-08-04T16:24:06.359Z,4.30
2022-08-04T16:26:38.017Z,3.40
2022-08-04T16:29:23.966Z,4.82
2022-08-04T16:32:07.194Z,4.50
2022-08-04T16:34:50.035Z,4.65
2022-08-04T16:37:23.336Z,3.88
2022-08-04T16:39:52.034Z,4.20
2022-08-04T16:42:29.224Z,4.07
2022-08-04T16:45:09.584Z,4.75
2022-08-04T16:47:49.697Z,4.25
2022-08-04T16:50:21.877Z,4.25
2022-08-04T16:52:53.456Z,4.40
2022-08-04T16:55:21.642Z,3.80
2022-08-04T16:57:49.632Z,3.92
2022-08-04T17:00:17.589Z,5.15
2022-08-04T17:02:48.072Z,4.53
2022-08-04T17:05:39.682Z,4.30
2022-08-04T17:10:56.784Z,4.05
2022-08-04T17:14:03.839Z,3.97
2022-08-04T17:16:33.109Z,3.85
2022-08-04T17:19:02.045Z,3.70
2022-08-04T17:21:31.095Z,4.50
2022-08-04T17:24:15.932Z,4.20
2022-08-04T17:26:53.820Z,4.57
2022-08-04T17:29:43.503Z,4.50
2022-08-04T17:32:21.357Z,4.35
2022-08-04T17:35:00.339Z,4.40
2022-08-04T17:37:36.723Z,4.40
2022-08-04T17:40:25.322Z,4.40
2022-08-04T17:44:01.301Z,4.07
2022-08-04T17:46:28.763Z,4.00
2022-08-04T17:49:04.201Z,4.28
2022-08-04T17:52:05.733Z,3.90
2022-08-04T17:54:29.962Z,4.30
2022-08-04T17:57:20.100Z,4.65
2022-08-04T17:59:57.627Z,3.95
2022-08-04T18:02:33.192Z,4.03
2022-08-04T18:05:10.779Z,4.20
2022-08-04T18:08:39.364Z,3.72
2022-08-04T18:10:52.378Z,3.88
2022-08-04T18:13:25.135Z,4.50
2022-08-04T18:16:05.627Z,4.00
2022-08-04T18:18:35.068Z,4.00
2022-08-04T18:21:06.246Z,4.00
2022-08-04T18:23:34.058Z,3.80
2022-08-04T18:26:03.852Z,3.72
2022-08-04T18:28:33.365Z,3.87
2022-08-04T18:31:02.238Z,3.87
2022-08-04T18:33:39.776Z,4.63
2022-08-04T18:36:34.779Z,4.35
2022-08-04T18:39:13.501Z,3.90
2022-08-04T18:42:01.137Z,3.63
2022-08-04T18:44:51.722Z,4.00
2022-08-04T18:47:29.890Z,3.57
2022-08-04T18:50:59.674Z,3.97
2022-08-04T18:52:46.225Z,3.55
2022-08-04T18:55:56.489Z,3.80
2022-08-04T18:58:07.166Z,4.10
2022-08-04T19:00:45.694Z,4.97
2022-08-04T19:03:16.328Z,4.65
2022-08-04T19:05:51.537Z,3.80
2022-08-04T19:08:33.912Z,4.40
2022-08-04T19:11:38.550Z,5.53
2022-08-04T19:13:54.628Z,5.10
2022-08-04T19:16:29.954Z,4.00
